createdAt,value
2019-04-16T00:01:11.227Z,9.99
2019-04-16T00:03:42.081Z,9.99
2019-04-16T00:06:12.257Z,9.63
2019-04-16T00:08:48.173Z,9.89
2019-04-16T00:11:18.404Z,9.89
2019-04-16T00:13:48.449Z,9.86
2019-04-16T00:16:16.919Z,9.86
2019-04-16T00:18:56.663Z,9.72
2019-04-16T00:21:19.861Z,9.72
2019-04-16T00:24:06.105Z,9.65
2019-04-16T00:26:34.685Z,9.63
2019-04-16T00:29:03.325Z,9.58
2019-04-16T00:31:34.410Z,9.58
2019-04-16T00:34:02.027Z,9.49
2019-04-16T00:36:30.506Z,9.51
2019-04-16T00:38:59.007Z,9.48
2019-04-16T00:41:27.555Z,9.40
2019-04-16T00:43:55.940Z,9.28
2019-04-16T00:46:24.418Z,9.23
2019-04-16T00:48:52.927Z,9.12
2019-04-16T00:51:21.353Z,8.98
2019-04-16T00:53:49.695Z,8.97
2019-04-16T00:56:18.081Z,8.87
2019-04-16T00:58:46.483Z,8.58
2019-04-16T01:01:14.856Z,8.43
2019-04-16T01:03:43.267Z,8.43
2019-04-16T01:06:11.671Z,8.02
2019-04-16T01:08:53.569Z,8.23
2019-04-16T01:11:10.209Z,8.11
2019-04-16T01:13:39.006Z,7.98
2019-04-16T01:16:07.385Z,7.98
2019-04-16T01:18:38.535Z,7.85
2019-04-16T01:21:06.084Z,7.75
2019-04-16T01:23:34.595Z,7.69
2019-04-16T01:26:03.087Z,7.64
2019-04-16T01:28:33.150Z,7.69
2019-04-16T01:31:08.143Z,7.58
2019-04-16T01:33:47.437Z,7.50
2019-04-16T01:36:33.685Z,7.40
2019-04-16T01:39:17.598Z,7.36
2019-04-16T01:41:39.693Z,7.26
2019-04-16T01:44:09.697Z,7.11
2019-04-16T01:46:38.086Z,7.06
2019-04-16T01:49:09.701Z,6.95
2019-04-16T01:51:37.858Z,6.87
2019-04-16T01:54:06.469Z,6.76
2019-04-16T01:56:34.867Z,6.70
2019-04-16T01:59:05.474Z,6.64
2019-04-16T02:01:33.587Z,6.66
2019-04-16T02:04:01.991Z,6.66
2019-04-16T02:06:30.450Z,6.62
2019-04-16T02:09:01.761Z,6.64
2019-04-16T02:11:29.010Z,6.66
2019-04-16T02:13:57.411Z,6.71
2019-04-16T02:16:26.074Z,6.75
2019-04-16T02:18:54.592Z,6.80
2019-04-16T02:21:22.990Z,6.83
2019-04-16T02:23:51.477Z,6.81
2019-04-16T02:26:20.609Z,6.75
2019-04-16T02:28:50.134Z,6.67
2019-04-16T02:31:18.629Z,6.63
2019-04-16T02:33:47.144Z,6.59
2019-04-16T02:36:15.538Z,6.59
2019-04-16T02:38:52.631Z,6.57
2019-04-16T02:41:14.258Z,6.57
2019-04-16T02:43:42.652Z,6.59
2019-04-16T02:46:11.349Z,6.56
2019-04-16T02:48:39.839Z,6.56
2019-04-16T02:51:15.764Z,6.50
2019-04-16T02:53:45.798Z,6.53
2019-04-16T02:56:19.021Z,6.47
2019-04-16T02:58:50.384Z,6.39
2019-04-16T03:01:29.029Z,6.29
2019-04-16T03:04:05.079Z,6.24
2019-04-16T03:06:33.650Z,6.28
2019-04-16T03:09:02.086Z,6.15
2019-04-16T03:11:30.857Z,6.05
2019-04-16T03:13:59.564Z,5.96
2019-04-16T03:16:29.651Z,5.92
2019-04-16T03:18:59.752Z,5.83
2019-04-16T03:21:28.315Z,5.75
2019-04-16T03:23:56.886Z,5.63
2019-04-16T03:28:36.178Z,5.50
2019-04-16T03:31:08.140Z,5.39
2019-04-16T03:33:34.752Z,5.36
2019-04-16T03:36:03.425Z,5.25
2019-04-16T03:38:36.694Z,5.23
2019-04-16T03:41:02.005Z,5.16
2019-04-16T03:43:32.832Z,5.10
2019-04-16T03:46:00.603Z,5.08
2019-04-16T03:48:28.996Z,5.06
2019-04-16T03:50:57.506Z,5.03
2019-04-16T03:53:25.906Z,5.04
2019-04-16T03:55:54.575Z,5.12
2019-04-16T03:58:24.513Z,5.15
2019-04-16T04:00:52.915Z,5.10
2019-04-16T04:03:25.874Z,5.14
2019-04-16T04:05:57.573Z,5.12
2019-04-16T04:08:26.134Z,5.07
2019-04-16T04:10:54.748Z,5.04
2019-04-16T04:13:23.558Z,5.12
2019-04-16T04:15:54.870Z,5.07
2019-04-16T04:18:22.266Z,5.02
2019-04-16T04:20:50.971Z,5.08
2019-04-16T04:23:20.432Z,5.13
2019-04-16T04:25:48.820Z,5.23
2019-04-16T04:28:19.678Z,5.28
2019-04-16T04:30:48.943Z,5.38
2019-04-16T04:33:40.686Z,5.40
2019-04-16T04:36:08.035Z,5.46
2019-04-16T04:38:38.456Z,5.38
2019-04-16T04:41:07.171Z,5.25
2019-04-16T04:43:35.559Z,5.15
2019-04-16T04:46:04.228Z,5.07
2019-04-16T04:48:32.716Z,5.06
2019-04-16T04:51:06.991Z,5.01
2019-04-16T04:53:31.298Z,4.99
2019-04-16T04:55:59.811Z,4.97
2019-04-16T04:58:28.251Z,4.95
2019-04-16T05:00:56.730Z,5.03
2019-04-16T05:03:29.465Z,5.04
2019-04-16T05:06:05.219Z,4.98
2019-04-16T05:08:33.725Z,5.03
2019-04-16T05:11:03.050Z,5.06
2019-04-16T05:13:31.776Z,5.01
2019-04-16T05:16:01.888Z,5.00
2019-04-16T05:18:30.422Z,5.00
2019-04-16T05:20:58.765Z,4.99
2019-04-16T05:23:27.275Z,5.02
2019-04-16T05:25:55.665Z,5.06
2019-04-16T05:28:24.160Z,5.10
2019-04-16T05:30:53.177Z,5.19
2019-04-16T05:33:21.978Z,5.17
2019-04-16T05:35:50.427Z,5.16
2019-04-16T05:38:20.713Z,5.30
2019-04-16T05:40:48.945Z,5.26
2019-04-16T05:43:17.351Z,5.26
2019-04-16T05:45:45.754Z,5.37
2019-04-16T05:48:14.154Z,5.39
2019-04-16T05:50:42.545Z,5.43
2019-04-16T05:53:13.223Z,5.45
2019-04-16T05:55:49.689Z,5.61
2019-04-16T05:58:15.844Z,5.75
2019-04-16T06:00:51.740Z,5.88
2019-04-16T06:03:21.625Z,6.10
2019-04-16T06:05:50.385Z,6.46
2019-04-16T06:08:18.850Z,6.76
2019-04-16T06:10:50.218Z,7.05
2019-04-16T06:13:31.088Z,7.37
2019-04-16T06:16:16.287Z,7.69
2019-04-16T06:19:02.087Z,8.06
2019-04-16T06:21:40.941Z,8.44
2019-04-16T06:24:13.743Z,8.81
2019-04-16T06:26:55.317Z,9.18
2019-04-16T06:29:41.760Z,8.86
2019-04-16T06:32:12.184Z,9.76
2019-04-16T06:34:58.294Z,9.93
2019-04-16T06:37:34.310Z,10.23
2019-04-16T06:40:07.132Z,10.54
2019-04-16T06:42:38.694Z,10.86
2019-04-16T06:45:15.564Z,11.17
2019-04-16T06:47:45.603Z,11.19
2019-04-16T06:50:29.549Z,11.87
2019-04-16T06:53:03.165Z,11.99
2019-04-16T06:55:49.476Z,12.24
2019-04-16T06:58:19.577Z,12.56
2019-04-16T07:01:06.947Z,12.91
2019-04-16T07:03:42.687Z,13.36
2019-04-16T07:06:28.974Z,13.80
2019-04-16T07:09:15.988Z,14.02
2019-04-16T07:11:54.216Z,13.98
2019-04-16T07:14:16.882Z,14.03
2019-04-16T07:16:45.594Z,14.01
2019-04-16T07:19:16.652Z,13.88
2019-04-16T07:21:48.730Z,14.11
2019-04-16T07:24:14.530Z,14.01
2019-04-16T07:26:46.639Z,14.23
2019-04-16T07:29:20.342Z,14.64
2019-04-16T07:31:56.353Z,14.87
2019-04-16T07:34:35.252Z,15.13
2019-04-16T07:37:17.205Z,15.16
2019-04-16T07:39:47.247Z,15.41
2019-04-16T07:42:22.151Z,15.83
2019-04-16T07:45:11.432Z,15.94
2019-04-16T07:47:55.239Z,16.22
2019-04-16T07:50:40.592Z,16.12
2019-04-16T07:53:13.535Z,16.38
2019-04-16T07:55:42.564Z,16.34
2019-04-16T07:58:11.078Z,16.27
2019-04-16T08:00:41.278Z,16.34
2019-04-16T08:03:09.748Z,16.82
2019-04-16T08:05:41.218Z,17.23
2019-04-16T08:08:08.468Z,17.82
2019-04-16T08:10:36.954Z,18.35
2019-04-16T08:13:07.063Z,18.79
2019-04-16T08:15:35.628Z,18.55
2019-04-16T08:18:04.212Z,18.57
2019-04-16T08:20:33.576Z,18.73
2019-04-16T08:23:03.719Z,19.26
2019-04-16T08:25:34.022Z,19.93
2019-04-16T08:28:02.354Z,20.07
2019-04-16T08:30:34.058Z,20.34
2019-04-16T08:33:01.033Z,20.66
2019-04-16T08:35:29.461Z,20.65
2019-04-16T08:37:58.918Z,20.54
2019-04-16T08:40:27.514Z,20.31
2019-04-16T08:42:57.253Z,20.86
2019-04-16T08:45:26.026Z,21.26
2019-04-16T08:47:54.455Z,20.95
2019-04-16T08:50:25.804Z,20.77
2019-04-16T08:52:53.088Z,21.07
2019-04-16T08:55:23.672Z,21.41
2019-04-16T08:57:51.608Z,22.24
2019-04-16T09:00:20.151Z,22.15
2019-04-16T09:02:48.583Z,22.09
2019-04-16T09:05:17.029Z,22.71
2019-04-16T09:07:45.446Z,23.01
2019-04-16T09:10:23.293Z,23.41
2019-04-16T09:13:02.255Z,23.72
2019-04-16T09:15:23.360Z,23.79
2019-04-16T09:17:53.397Z,23.59
2019-04-16T09:20:23.583Z,23.89
2019-04-16T09:22:53.809Z,23.96
2019-04-16T09:25:29.730Z,23.58
2019-04-16T09:28:07.966Z,23.89
2019-04-16T09:30:43.086Z,24.44
2019-04-16T09:33:22.319Z,24.92
2019-04-16T09:36:10.603Z,23.87
2019-04-16T09:38:45.490Z,24.32
2019-04-16T09:41:18.189Z,24.60
2019-04-16T09:43:48.215Z,24.75
2019-04-16T09:46:22.794Z,25.23
2019-04-16T09:48:49.904Z,25.33
2019-04-16T09:51:20.791Z,25.10
2019-04-16T09:53:47.367Z,25.19
2019-04-16T09:56:30.867Z,25.21
2019-04-16T09:59:02.551Z,24.74
2019-04-16T10:01:41.447Z,24.63
2019-04-16T10:04:11.618Z,25.20
2019-04-16T10:06:40.132Z,25.59
2019-04-16T10:09:08.765Z,25.21
2019-04-16T10:11:37.230Z,25.36
2019-04-16T10:14:05.776Z,25.51
2019-04-16T10:16:34.310Z,24.61
2019-04-16T10:19:07.994Z,25.05
2019-04-16T10:21:32.880Z,25.07
2019-04-16T10:24:21.054Z,25.43
2019-04-16T10:26:51.142Z,25.20
2019-04-16T10:29:20.770Z,24.72
2019-04-16T10:31:49.243Z,25.27
2019-04-16T10:34:17.697Z,25.76
2019-04-16T10:36:46.110Z,26.43
2019-04-16T10:39:16.234Z,26.56
2019-04-16T10:41:46.423Z,26.26
2019-04-16T10:44:22.249Z,24.80
2019-04-16T10:47:04.131Z,24.08
2019-04-16T10:49:34.222Z,23.84
2019-04-16T10:52:22.186Z,23.87
2019-04-16T10:55:05.808Z,24.03
2019-04-16T10:57:47.937Z,23.45
2019-04-16T11:00:36.761Z,23.52
2019-04-16T11:03:06.913Z,23.78
2019-04-16T11:05:39.562Z,24.26
2019-04-16T11:08:08.989Z,24.66
2019-04-16T11:10:37.474Z,24.78
2019-04-16T11:13:07.770Z,25.04
2019-04-16T11:15:37.039Z,25.31
2019-04-16T11:18:06.622Z,25.61
2019-04-16T11:20:35.105Z,26.07
2019-04-16T11:23:06.869Z,25.39
2019-04-16T11:25:33.968Z,23.88
2019-04-16T11:28:02.455Z,23.41
2019-04-16T11:30:35.264Z,23.42
2019-04-16T11:33:03.767Z,24.14
2019-04-16T11:35:32.328Z,24.70
2019-04-16T11:38:00.948Z,25.60
2019-04-16T11:40:29.468Z,24.40
2019-04-16T11:42:57.936Z,23.69
2019-04-16T11:45:26.540Z,23.63
2019-04-16T11:47:54.929Z,23.58
2019-04-16T11:50:23.612Z,24.20
2019-04-16T11:52:57.096Z,24.96
2019-04-16T11:55:22.372Z,25.97
2019-04-16T11:57:50.935Z,26.71
2019-04-16T12:00:30.475Z,26.56
2019-04-16T12:03:12.202Z,26.38
2019-04-16T12:05:58.293Z,26.29
2019-04-16T12:08:37.320Z,26.50
2019-04-16T12:11:07.499Z,27.02
2019-04-16T12:13:40.226Z,27.77
2019-04-16T12:16:26.699Z,28.13
2019-04-16T12:18:59.648Z,27.99
2019-04-16T12:21:32.547Z,27.96
2019-04-16T12:24:18.777Z,28.51
2019-04-16T12:26:48.929Z,29.10
2019-04-16T12:29:27.556Z,28.42
2019-04-16T12:31:57.661Z,27.96
2019-04-16T12:34:30.454Z,27.65
2019-04-16T12:37:03.334Z,26.94
2019-04-16T12:39:36.354Z,26.38
2019-04-16T12:42:06.715Z,26.07
2019-04-16T12:44:45.275Z,25.19
2019-04-16T12:47:11.265Z,24.93
2019-04-16T12:49:41.364Z,25.48
2019-04-16T12:52:15.858Z,25.81
2019-04-16T12:54:43.234Z,25.81
2019-04-16T12:57:22.132Z,26.00
2019-04-16T12:59:58.165Z,26.22
2019-04-16T13:02:28.221Z,26.08
2019-04-16T13:05:07.517Z,26.18
2019-04-16T13:07:40.359Z,26.10
2019-04-16T13:10:16.489Z,26.19
2019-04-16T13:12:46.660Z,26.43
2019-04-16T13:15:32.786Z,27.21
2019-04-16T13:18:02.886Z,27.44
2019-04-16T13:20:49.029Z,27.47
2019-04-16T13:23:35.279Z,27.21
2019-04-16T13:26:14.630Z,26.70
2019-04-16T13:28:43.015Z,27.19
2019-04-16T13:31:11.444Z,27.28
2019-04-16T13:33:39.865Z,27.69
2019-04-16T13:36:08.600Z,27.85
2019-04-16T13:38:45.648Z,28.13
2019-04-16T13:41:14.172Z,28.13
2019-04-16T13:43:49.989Z,28.26
2019-04-16T13:46:18.389Z,28.41
2019-04-16T13:48:59.850Z,28.59
2019-04-16T13:51:29.131Z,28.82
2019-04-16T13:54:01.031Z,28.24
2019-04-16T13:56:30.969Z,28.07
2019-04-16T13:59:03.563Z,27.59
2019-04-16T14:01:46.041Z,27.54
2019-04-16T14:04:12.620Z,27.55
2019-04-16T14:06:40.973Z,26.86
2019-04-16T14:09:09.700Z,26.11
2019-04-16T14:11:38.270Z,25.79
2019-04-16T14:14:07.859Z,25.37
2019-04-16T14:16:36.910Z,25.60
2019-04-16T14:19:06.787Z,25.45
2019-04-16T14:21:35.519Z,25.03
2019-04-16T14:24:04.007Z,24.85
2019-04-16T14:26:32.574Z,25.43
2019-04-16T14:29:05.600Z,25.41
2019-04-16T14:31:31.155Z,25.58
2019-04-16T14:34:07.204Z,25.29
2019-04-16T14:36:35.567Z,24.89
2019-04-16T14:39:16.106Z,25.18
2019-04-16T14:41:48.899Z,25.22
2019-04-16T14:44:16.956Z,25.08
2019-04-16T14:46:45.415Z,24.87
2019-04-16T14:49:15.136Z,25.13
2019-04-16T14:51:44.179Z,25.11
2019-04-16T14:54:22.965Z,25.23
2019-04-16T14:56:53.026Z,25.18
2019-04-16T14:59:33.485Z,25.54
2019-04-16T15:02:11.126Z,25.60
2019-04-16T15:04:43.204Z,25.81
2019-04-16T15:07:28.981Z,25.77
2019-04-16T15:10:10.942Z,25.33
2019-04-16T15:12:49.970Z,25.38
2019-04-16T15:15:20.089Z,25.51
2019-04-16T15:17:56.035Z,25.45
2019-04-16T15:20:26.062Z,25.25
2019-04-16T15:23:11.970Z,25.49
2019-04-16T15:25:53.869Z,25.49
2019-04-16T15:28:30.196Z,25.23
2019-04-16T15:31:02.553Z,24.29
2019-04-16T15:33:47.118Z,23.63
2019-04-16T15:36:19.431Z,23.15
2019-04-16T15:39:04.440Z,23.00
2019-04-16T15:41:50.220Z,22.63
2019-04-16T15:44:23.600Z,22.51
2019-04-16T15:47:13.361Z,22.18
2019-04-16T15:49:57.954Z,21.92
2019-04-16T15:52:46.338Z,21.68
2019-04-16T15:55:32.915Z,21.52
2019-04-16T15:58:09.746Z,21.44
2019-04-16T16:00:52.115Z,21.24
2019-04-16T16:03:28.156Z,21.06
2019-04-16T16:05:58.185Z,21.00
2019-04-16T16:08:30.544Z,21.07
2019-04-16T16:11:18.026Z,20.97
2019-04-16T16:13:46.687Z,21.04
2019-04-16T16:16:18.076Z,21.16
2019-04-16T16:18:45.545Z,21.14
2019-04-16T16:21:14.104Z,20.90
2019-04-16T16:23:42.679Z,20.63
2019-04-16T16:26:11.759Z,20.34
2019-04-16T16:28:40.327Z,20.16
2019-04-16T16:31:08.808Z,20.05
2019-04-16T16:33:37.241Z,19.92
2019-04-16T16:36:05.746Z,20.00
2019-04-16T16:38:34.238Z,19.96
2019-04-16T16:41:04.078Z,19.86
2019-04-16T16:43:32.498Z,19.69
2019-04-16T16:46:08.518Z,19.59
2019-04-16T16:48:37.285Z,19.67
2019-04-16T16:51:05.800Z,19.72
2019-04-16T16:53:54.504Z,19.66
2019-04-16T16:56:27.521Z,19.56
2019-04-16T16:59:00.271Z,19.43
2019-04-16T17:01:33.608Z,19.35
2019-04-16T17:04:02.260Z,19.38
2019-04-16T17:06:31.113Z,19.24
2019-04-16T17:08:59.558Z,19.18
2019-04-16T17:11:27.973Z,19.15
2019-04-16T17:13:58.011Z,19.03
2019-04-16T17:16:26.808Z,19.01
2019-04-16T17:18:55.213Z,18.84
2019-04-16T17:21:23.724Z,18.70
2019-04-16T17:23:52.063Z,18.62
2019-04-16T17:26:20.664Z,18.56
2019-04-16T17:28:49.137Z,18.49
2019-04-16T17:31:17.790Z,18.40
2019-04-16T17:33:46.272Z,18.35
2019-04-16T17:36:14.689Z,18.21
2019-04-16T17:38:43.067Z,18.19
2019-04-16T17:41:13.214Z,18.06
2019-04-16T17:43:43.241Z,17.98
2019-04-16T17:46:29.632Z,17.91
2019-04-16T17:48:59.816Z,17.93
2019-04-16T17:51:46.895Z,17.81
2019-04-16T17:54:23.101Z,17.71
2019-04-16T17:57:09.205Z,17.67
2019-04-16T17:59:54.912Z,17.69
2019-04-16T18:02:41.344Z,17.68
2019-04-16T18:05:17.338Z,17.67
2019-04-16T18:07:50.099Z,17.57
2019-04-16T18:10:22.479Z,17.52
2019-04-16T18:12:57.430Z,17.51
2019-04-16T18:15:33.265Z,17.39
2019-04-16T18:18:06.110Z,17.30
2019-04-16T18:20:36.414Z,17.28
2019-04-16T18:23:22.539Z,17.29
2019-04-16T18:25:56.546Z,17.30
2019-04-16T18:28:27.579Z,17.42
2019-04-16T18:31:15.393Z,17.49
2019-04-16T18:33:57.018Z,17.33
2019-04-16T18:36:29.859Z,17.18
2019-04-16T18:39:04.412Z,17.14
2019-04-16T18:41:31.742Z,17.06
2019-04-16T18:44:07.680Z,16.85
2019-04-16T18:46:37.741Z,16.74
2019-04-16T18:49:10.552Z,16.23
2019-04-16T18:51:52.611Z,15.67
2019-04-16T18:54:22.274Z,15.20
2019-04-16T18:56:50.741Z,14.90
2019-04-16T18:59:19.179Z,14.67
2019-04-16T19:01:54.957Z,14.60
2019-04-16T19:04:23.473Z,14.65
2019-04-16T19:06:52.369Z,14.69
2019-04-16T19:09:21.212Z,14.68
2019-04-16T19:11:49.751Z,14.59
2019-04-16T19:14:18.174Z,14.57
2019-04-16T19:16:46.653Z,14.51
2019-04-16T19:19:15.157Z,14.47
2019-04-16T19:21:43.565Z,14.46
2019-04-16T19:24:12.076Z,14.47
2019-04-16T19:26:40.491Z,14.42
2019-04-16T19:29:13.309Z,14.48
2019-04-16T19:31:39.194Z,14.50
2019-04-16T19:34:10.273Z,14.46
2019-04-16T19:36:37.803Z,14.48
2019-04-16T19:39:10.266Z,14.46
2019-04-16T19:41:41.029Z,14.41
2019-04-16T19:44:08.275Z,14.31
2019-04-16T19:46:36.860Z,14.25
2019-04-16T19:49:05.336Z,14.26
2019-04-16T19:51:33.744Z,14.28
2019-04-16T19:54:02.246Z,14.21
2019-04-16T19:56:33.410Z,14.10
2019-04-16T19:59:02.570Z,14.02
2019-04-16T20:03:34.848Z,14.03
2019-04-16T20:06:03.638Z,14.01
2019-04-16T20:08:36.809Z,13.90
2019-04-16T20:11:02.326Z,13.92
2019-04-16T20:13:30.810Z,13.95
2019-04-16T20:16:00.584Z,13.98
2019-04-16T20:18:29.129Z,14.00
2019-04-16T20:21:00.547Z,14.03
2019-04-16T20:23:28.402Z,14.06
2019-04-16T20:26:00.459Z,14.07
2019-04-16T20:28:27.109Z,14.02
2019-04-16T20:31:01.858Z,13.93
2019-04-16T20:33:25.858Z,13.81
2019-04-16T20:35:54.374Z,13.71
2019-04-16T20:38:22.829Z,13.67
2019-04-16T20:40:51.246Z,13.63
2019-04-16T20:43:19.750Z,13.61
2019-04-16T20:45:48.194Z,13.58
2019-04-16T20:48:16.603Z,13.59
2019-04-16T20:50:45.155Z,13.50
2019-04-16T20:53:13.796Z,13.41
2019-04-16T20:55:47.088Z,13.40
2019-04-16T20:58:14.770Z,13.40
2019-04-16T21:00:44.534Z,13.36
2019-04-16T21:03:21.932Z,13.36
2019-04-16T21:05:57.305Z,13.37
2019-04-16T21:08:13.336Z,13.31
2019-04-16T21:10:41.775Z,13.30
2019-04-16T21:13:10.198Z,13.27
2019-04-16T21:15:38.610Z,13.22
2019-04-16T21:18:10.481Z,13.10
2019-04-16T21:20:37.263Z,13.10
2019-04-16T21:23:05.699Z,13.11
2019-04-16T21:25:34.173Z,13.03
2019-04-16T21:28:06.949Z,13.04
2019-04-16T21:30:35.848Z,13.00
2019-04-16T21:33:06.041Z,13.05
2019-04-16T21:35:36.077Z,12.92
2019-04-16T21:38:23.898Z,12.85
2019-04-16T21:40:52.815Z,12.77
2019-04-16T21:43:22.640Z,12.76
2019-04-16T21:45:51.029Z,12.72
2019-04-16T21:48:19.433Z,12.68
2019-04-16T21:50:48.297Z,12.73
2019-04-16T21:53:16.970Z,12.72
2019-04-16T21:55:45.458Z,12.74
2019-04-16T21:58:14.594Z,12.76
2019-04-16T22:00:51.645Z,12.82
2019-04-16T22:03:24.481Z,12.83
2019-04-16T22:05:52.951Z,12.81
2019-04-16T22:08:21.338Z,12.78
2019-04-16T22:10:49.768Z,12.83
2019-04-16T22:13:19.479Z,12.73
2019-04-16T22:15:48.423Z,12.64
2019-04-16T22:18:16.899Z,12.50
2019-04-16T22:20:45.362Z,12.53
2019-04-16T22:23:18.991Z,12.42
2019-04-16T22:25:43.922Z,12.31
2019-04-16T22:28:13.046Z,12.31
2019-04-16T22:30:41.487Z,12.29
2019-04-16T22:33:09.877Z,12.33
2019-04-16T22:35:38.477Z,12.36
2019-04-16T22:38:06.843Z,12.45
2019-04-16T22:40:56.133Z,12.49
2019-04-16T22:43:26.632Z,12.46
2019-04-16T22:45:56.667Z,12.36
2019-04-16T22:48:25.196Z,12.30
2019-04-16T22:50:53.651Z,12.21
2019-04-16T22:53:22.148Z,12.16
2019-04-16T22:55:53.679Z,12.15
2019-04-16T22:58:27.777Z,12.15
2019-04-16T23:00:57.795Z,12.19
2019-04-16T23:03:26.384Z,11.85
2019-04-16T23:05:54.892Z,12.13
2019-04-16T23:08:23.363Z,12.18
2019-04-16T23:10:52.169Z,12.18
2019-04-16T23:13:20.624Z,12.20
2019-04-16T23:15:49.112Z,12.30
2019-04-16T23:18:18.334Z,12.28
2019-04-16T23:20:46.959Z,12.22
2019-04-16T23:23:17.864Z,12.22
2019-04-16T23:25:45.588Z,12.09
2019-04-16T23:28:13.975Z,12.05
2019-04-16T23:30:48.030Z,12.09
2019-04-16T23:33:15.306Z,12.11
2019-04-16T23:35:44.640Z,12.10
2019-04-16T23:38:13.078Z,12.08
2019-04-16T23:40:43.942Z,12.06
2019-04-16T23:43:29.156Z,12.01
2019-04-16T23:46:06.290Z,11.95
2019-04-16T23:48:52.120Z,11.94
2019-04-16T23:51:40.321Z,11.91
2019-04-16T23:54:15.765Z,11.93
2019-04-16T23:56:49.711Z,11.99
2019-04-16T23:59:21.812Z,11.99
